createdAt,value
2022-12-13T00:00:18.267Z,26.02
2022-12-13T00:03:08.241Z,34.90
2022-12-13T00:05:42.562Z,26.13
2022-12-13T00:08:10.267Z,17.73
2022-12-13T00:10:38.383Z,21.40
2022-12-13T00:13:06.047Z,17.05
2022-12-13T00:15:34.060Z,15.43
2022-12-13T00:18:01.670Z,16.02
2022-12-13T00:20:29.604Z,16.05
2022-12-13T00:22:57.585Z,16.27
2022-12-13T00:25:25.874Z,16.13
2022-12-13T00:27:53.557Z,15.25
2022-12-13T00:30:21.508Z,15.27
2022-12-13T00:32:49.173Z,13.98
2022-12-13T00:35:17.293Z,16.05
2022-12-13T00:37:45.203Z,12.55
2022-12-13T00:40:13.589Z,11.32
2022-12-13T00:42:41.397Z,12.60
2022-12-13T00:45:10.126Z,10.98
2022-12-13T00:47:38.154Z,12.50
2022-12-13T00:50:07.297Z,12.97
2022-12-13T00:52:35.582Z,14.23
2022-12-13T00:55:04.109Z,13.75
2022-12-13T00:57:33.787Z,13.82
2022-12-13T01:00:01.739Z,14.05
2022-12-13T01:02:29.302Z,14.10
2022-12-13T01:04:58.121Z,11.02
2022-12-13T01:07:28.485Z,14.15
2022-12-13T01:10:00.593Z,14.82
2022-12-13T01:12:28.226Z,16.58
2022-12-13T01:14:56.341Z,17.70
2022-12-13T01:17:25.125Z,15.63
2022-12-13T01:19:52.997Z,18.25
2022-12-13T01:22:20.726Z,18.27
2022-12-13T01:24:49.028Z,17.20
2022-12-13T01:27:17.049Z,16.25
2022-12-13T01:29:44.957Z,20.13
2022-12-13T01:32:12.530Z,17.20
2022-12-13T01:34:40.444Z,18.73
2022-12-13T01:37:07.943Z,17.50
2022-12-13T01:39:38.018Z,18.25
2022-12-13T01:42:06.207Z,19.48
2022-12-13T01:45:30.962Z,18.13
2022-12-13T01:48:05.552Z,17.60
2022-12-13T01:50:41.587Z,21.52
2022-12-13T01:53:15.720Z,17.95
2022-12-13T01:55:47.421Z,20.67
2022-12-13T01:58:16.120Z,20.60
2022-12-13T02:00:45.036Z,20.75
2022-12-13T02:03:20.810Z,22.83
2022-12-13T02:06:16.533Z,20.48
2022-12-13T02:08:47.073Z,17.48
2022-12-13T02:11:15.810Z,19.88
2022-12-13T02:13:43.472Z,17.38
2022-12-13T02:16:21.978Z,18.30
2022-12-13T02:19:08.507Z,16.08
2022-12-13T02:22:04.093Z,20.52
2022-12-13T02:24:58.850Z,19.02
2022-12-13T02:28:30.630Z,18.52
2022-12-13T02:31:33.069Z,18.70
2022-12-13T02:34:09.029Z,17.92
2022-12-13T02:36:58.167Z,15.70
2022-12-13T02:39:44.149Z,18.73
2022-12-13T02:42:37.463Z,16.85
2022-12-13T02:45:20.783Z,18.70
2022-12-13T02:47:52.639Z,17.13
2022-12-13T02:50:22.242Z,18.25
2022-12-13T02:52:52.414Z,19.48
2022-12-13T02:55:23.932Z,19.73
2022-12-13T02:57:54.342Z,20.48
2022-12-13T03:00:38.033Z,21.15
2022-12-13T03:03:22.051Z,20.23
2022-12-13T03:06:34.364Z,20.95
2022-12-13T03:09:28.747Z,21.00
2022-12-13T03:12:46.310Z,20.45
2022-12-13T03:15:27.547Z,20.15
2022-12-13T03:18:15.747Z,19.83
2022-12-13T03:20:54.956Z,21.70
2022-12-13T03:23:23.622Z,19.08
2022-12-13T03:25:59.965Z,19.80
2022-12-13T03:28:28.004Z,22.30
2022-12-13T03:30:55.674Z,21.50
2022-12-13T03:33:23.656Z,21.58
2022-12-13T03:35:51.593Z,22.13
2022-12-13T03:38:21.911Z,20.23
2022-12-13T03:41:12.071Z,20.40
2022-12-13T03:43:40.735Z,19.13
2022-12-13T03:46:09.618Z,19.92
2022-12-13T03:48:37.679Z,19.10
2022-12-13T03:51:06.112Z,18.77
2022-12-13T03:53:34.667Z,20.80
2022-12-13T03:56:07.034Z,21.23
2022-12-13T03:58:37.983Z,23.05
2022-12-13T04:01:14.710Z,20.70
2022-12-13T04:03:44.863Z,18.80
2022-12-13T04:06:22.725Z,19.83
2022-12-13T04:11:42.725Z,21.42
2022-12-13T04:14:22.018Z,20.75
2022-12-13T04:16:52.512Z,21.02
2022-12-13T04:19:23.005Z,22.45
2022-12-13T04:21:55.232Z,22.73
2022-12-13T04:24:31.338Z,23.48
2022-12-13T04:27:01.642Z,23.13
2022-12-13T04:29:34.349Z,23.42
2022-12-13T04:32:26.428Z,25.17
2022-12-13T04:35:12.380Z,23.10
2022-12-13T04:37:39.984Z,24.33
2022-12-13T04:40:12.381Z,23.35
2022-12-13T04:42:39.971Z,23.35
2022-12-13T04:45:08.780Z,23.45
2022-12-13T04:47:36.234Z,23.40
2022-12-13T04:50:04.837Z,23.48
2022-12-13T04:52:32.462Z,23.25
2022-12-13T04:55:00.333Z,24.27
2022-12-13T04:57:27.985Z,22.92
2022-12-13T04:59:55.924Z,23.42
2022-12-13T05:02:24.399Z,23.55
2022-12-13T05:04:53.875Z,27.38
2022-12-13T05:07:24.055Z,26.77
2022-12-13T05:09:52.056Z,25.48
2022-12-13T05:12:22.284Z,24.92
2022-12-13T05:14:52.499Z,24.33
2022-12-13T05:17:20.534Z,23.95
2022-12-13T05:19:48.423Z,24.08
2022-12-13T05:22:20.255Z,25.38
2022-12-13T05:24:49.591Z,24.25
2022-12-13T05:27:24.994Z,22.35
2022-12-13T05:30:03.896Z,24.52
2022-12-13T05:32:44.144Z,21.45
2022-12-13T05:35:22.297Z,21.88
2022-12-13T05:37:55.467Z,23.17
2022-12-13T05:40:24.861Z,22.92
2022-12-13T05:43:01.240Z,21.90
2022-12-13T05:45:32.045Z,22.90
2022-12-13T05:48:00.602Z,22.80
2022-12-13T05:50:28.663Z,23.37
2022-12-13T05:52:56.251Z,20.15
2022-12-13T05:55:24.161Z,23.45
2022-12-13T05:57:51.700Z,22.15
2022-12-13T06:00:28.616Z,19.58
2022-12-13T06:03:00.962Z,23.48
2022-12-13T06:05:30.873Z,23.08
2022-12-13T06:07:59.064Z,24.27
2022-12-13T06:10:34.098Z,21.95
2022-12-13T06:13:21.776Z,22.33
2022-12-13T06:16:01.699Z,21.58
2022-12-13T06:18:32.902Z,25.08
2022-12-13T06:21:05.430Z,23.20
2022-12-13T06:23:35.351Z,25.15
2022-12-13T06:26:07.353Z,22.98
2022-12-13T06:28:35.304Z,24.33
2022-12-13T06:31:05.220Z,22.05
2022-12-13T06:33:36.705Z,22.40
2022-12-13T06:36:05.610Z,24.65
2022-12-13T06:38:33.197Z,23.43
2022-12-13T06:41:13.293Z,21.63
2022-12-13T06:43:45.916Z,27.35
2022-12-13T06:46:15.745Z,26.20
2022-12-13T06:51:11.788Z,25.55
2022-12-13T06:53:40.714Z,24.42
2022-12-13T06:56:12.545Z,23.73
2022-12-13T06:58:42.086Z,23.50
2022-12-13T07:01:24.552Z,24.63
2022-12-13T07:03:56.220Z,24.85
2022-12-13T07:06:26.007Z,25.73
2022-12-13T07:11:28.677Z,23.65
2022-12-13T07:13:56.918Z,24.90
2022-12-13T07:16:25.880Z,28.55
2022-12-13T07:19:02.845Z,32.50
2022-12-13T07:21:31.484Z,31.00
2022-12-13T07:23:59.477Z,33.10
2022-12-13T07:26:27.507Z,41.35
2022-12-13T07:28:55.677Z,37.15
2022-12-13T07:31:25.448Z,33.65
2022-12-13T07:33:53.173Z,32.03
2022-12-13T07:36:23.048Z,28.50
2022-12-13T07:38:58.565Z,29.42
2022-12-13T07:41:27.877Z,35.47
2022-12-13T07:43:56.577Z,37.92
2022-12-13T07:46:33.373Z,39.55
2022-12-13T07:49:03.429Z,38.38
2022-12-13T07:51:34.933Z,40.45
2022-12-13T07:54:06.728Z,39.70
2022-12-13T07:56:36.169Z,37.97
2022-12-13T07:59:04.400Z,39.08
2022-12-13T08:01:36.807Z,38.22
2022-12-13T08:04:05.119Z,36.08
2022-12-13T08:06:37.824Z,39.43
2022-12-13T08:09:06.126Z,39.38
2022-12-13T08:11:34.605Z,42.78
2022-12-13T08:14:02.136Z,42.25
2022-12-13T08:16:30.666Z,43.17
2022-12-13T08:19:03.216Z,44.95
2022-12-13T08:21:58.329Z,45.78
2022-12-13T08:24:28.782Z,46.10
2022-12-13T08:27:01.401Z,49.92
2022-12-13T08:29:33.891Z,50.17
2022-12-13T08:32:12.065Z,54.65
2022-12-13T08:34:41.570Z,54.22
2022-12-13T08:37:09.518Z,54.97
2022-12-13T08:39:38.989Z,54.38
2022-12-13T08:42:18.878Z,51.55
2022-12-13T08:44:52.981Z,40.63
2022-12-13T08:47:26.782Z,30.70
2022-12-13T08:50:02.414Z,24.92
2022-12-13T08:52:40.244Z,24.42
2022-12-13T08:55:14.123Z,24.75
2022-12-13T08:57:43.802Z,24.02
2022-12-13T09:00:16.983Z,22.40
2022-12-13T09:02:45.233Z,21.50
2022-12-13T09:05:32.389Z,22.80
2022-12-13T09:08:23.602Z,22.08
2022-12-13T09:11:00.630Z,25.73
2022-12-13T09:13:35.171Z,26.38
2022-12-13T09:16:23.392Z,26.08
2022-12-13T09:18:55.978Z,24.25
2022-12-13T09:21:31.757Z,23.85
2022-12-13T09:24:01.768Z,22.23
2022-12-13T09:29:11.698Z,20.98
2022-12-13T09:31:40.830Z,19.08
2022-12-13T09:36:38.635Z,21.30
2022-12-13T09:39:06.526Z,21.38
2022-12-13T09:41:53.033Z,21.88
2022-12-13T09:44:42.721Z,19.98
2022-12-13T09:47:28.545Z,20.25
2022-12-13T09:50:37.575Z,18.92
2022-12-13T09:53:21.122Z,19.75
2022-12-13T09:55:52.490Z,17.15
2022-12-13T09:58:38.199Z,18.98
2022-12-13T10:01:06.764Z,21.13
2022-12-13T10:03:34.745Z,21.02
2022-12-13T10:06:23.521Z,22.50
2022-12-13T10:08:59.237Z,20.15
2022-12-13T10:11:31.289Z,20.30
2022-12-13T10:14:31.487Z,18.38
2022-12-13T10:17:04.169Z,18.23
2022-12-13T10:19:44.687Z,16.20
2022-12-13T10:22:16.525Z,14.02
2022-12-13T10:25:05.994Z,13.25
2022-12-13T10:27:40.773Z,14.43
2022-12-13T10:30:13.415Z,15.75
2022-12-13T10:33:01.351Z,15.73
2022-12-13T10:35:35.569Z,13.32
2022-12-13T10:38:31.742Z,14.23
2022-12-13T10:41:01.070Z,15.73
2022-12-13T10:46:04.082Z,14.82
2022-12-13T10:48:47.924Z,18.27
2022-12-13T10:51:20.228Z,15.45
2022-12-13T10:53:51.329Z,14.43
2022-12-13T10:56:23.083Z,15.88
2022-12-13T10:59:21.150Z,19.15
2022-12-13T11:01:48.826Z,18.83
2022-12-13T11:04:34.595Z,15.80
2022-12-13T11:07:25.600Z,16.08
2022-12-13T11:09:53.697Z,20.10
2022-12-13T11:12:26.013Z,22.25
2022-12-13T11:15:04.383Z,20.25
2022-12-13T11:18:02.603Z,17.95
2022-12-13T11:20:40.052Z,17.67
2022-12-13T11:23:26.121Z,19.95
2022-12-13T11:26:06.632Z,15.75
2022-12-13T11:29:15.276Z,13.13
2022-12-13T11:32:32.053Z,15.40
2022-12-13T11:35:41.805Z,16.13
2022-12-13T11:38:53.976Z,12.90
2022-12-13T11:41:33.232Z,15.88
2022-12-13T11:44:26.324Z,15.00
2022-12-13T11:47:00.915Z,15.98
2022-12-13T11:49:45.791Z,18.05
2022-12-13T11:52:30.202Z,16.48
2022-12-13T11:55:24.353Z,15.40
2022-12-13T11:58:54.013Z,15.30
2022-12-13T12:04:18.387Z,18.73
2022-12-13T12:07:31.091Z,21.52
2022-12-13T12:10:30.789Z,19.25
2022-12-13T12:13:13.807Z,17.80
2022-12-13T12:16:46.323Z,15.77
2022-12-13T12:19:18.761Z,14.02
2022-12-13T12:22:48.991Z,14.75
2022-12-13T12:25:51.813Z,15.30
2022-12-13T12:28:57.095Z,16.42
2022-12-13T12:34:45.843Z,10.52
2022-12-13T12:37:45.764Z,12.57
2022-12-13T12:40:24.928Z,14.02
2022-12-13T12:45:57.940Z,12.60
2022-12-13T12:49:03.031Z,14.50
2022-12-13T12:51:52.315Z,13.25
2022-12-13T12:54:32.735Z,13.40
2022-12-13T12:57:31.161Z,12.43
2022-12-13T13:00:17.426Z,13.77
2022-12-13T13:03:01.812Z,14.77
2022-12-13T13:05:32.941Z,15.07
2022-12-13T13:08:17.512Z,16.20
2022-12-13T13:10:49.863Z,16.98
2022-12-13T13:14:03.898Z,16.85
2022-12-13T13:16:38.013Z,14.20
2022-12-13T13:19:12.391Z,14.50
2022-12-13T13:21:52.409Z,12.93
2022-12-13T13:24:23.228Z,12.85
2022-12-13T13:26:58.175Z,15.15
2022-12-13T13:29:28.646Z,12.95
2022-12-13T13:32:28.425Z,12.00
2022-12-13T13:35:33.877Z,13.18
2022-12-13T13:38:27.681Z,15.20
2022-12-13T13:40:55.431Z,15.10
2022-12-13T13:43:32.757Z,14.23
2022-12-13T13:46:10.945Z,13.75
2022-12-13T13:48:41.691Z,14.10
2022-12-13T13:51:20.789Z,14.73
2022-12-13T13:58:07.637Z,16.20
2022-12-13T14:01:33.793Z,20.33
2022-12-13T14:04:51.968Z,22.95
2022-12-13T14:07:38.073Z,22.52
2022-12-13T14:10:35.253Z,24.77
2022-12-13T14:13:44.957Z,26.65
2022-12-13T14:16:49.540Z,31.35
2022-12-13T14:19:33.632Z,32.72
2022-12-13T14:22:12.814Z,34.70
2022-12-13T14:24:58.801Z,37.75
2022-12-13T14:27:26.269Z,36.95
2022-12-13T14:29:58.596Z,36.28
2022-12-13T14:32:37.039Z,35.22
2022-12-13T14:35:25.414Z,33.25
2022-12-13T14:38:20.466Z,29.70
2022-12-13T14:40:52.324Z,29.83
2022-12-13T14:43:38.290Z,27.63
2022-12-13T14:46:08.195Z,25.25
2022-12-13T14:48:55.992Z,23.88
2022-12-13T14:51:38.126Z,24.27
2022-12-13T14:54:08.484Z,24.02
2022-12-13T14:56:56.610Z,24.23
2022-12-13T14:59:24.658Z,24.67
2022-12-13T15:02:06.732Z,21.80
2022-12-13T15:04:37.932Z,22.83
2022-12-13T15:07:25.619Z,21.23
2022-12-13T15:10:02.019Z,20.80
2022-12-13T15:12:32.182Z,22.48
2022-12-13T15:17:38.852Z,24.25
2022-12-13T15:20:31.113Z,22.80
2022-12-13T15:23:22.437Z,25.42
2022-12-13T15:26:28.812Z,24.98
2022-12-13T15:29:10.312Z,27.08
2022-12-13T15:31:40.752Z,28.65
2022-12-13T15:34:35.059Z,26.23
2022-12-13T15:37:28.546Z,24.35
2022-12-13T15:40:09.805Z,25.70
2022-12-13T15:42:44.150Z,24.05
2022-12-13T15:45:30.464Z,22.95
2022-12-13T15:48:02.455Z,21.75
2022-12-13T15:50:45.416Z,24.90
2022-12-13T15:53:27.892Z,24.42
2022-12-13T15:55:56.328Z,25.20
2022-12-13T15:58:42.605Z,26.13
2022-12-13T16:01:36.150Z,26.08
2022-12-13T16:04:06.302Z,28.42
2022-12-13T16:06:34.436Z,23.58
2022-12-13T16:09:06.963Z,23.90
2022-12-13T16:11:53.351Z,24.33
2022-12-13T16:14:49.657Z,21.90
2022-12-13T16:17:29.753Z,21.17
2022-12-13T16:20:09.197Z,22.25
2022-12-13T16:22:37.611Z,24.83
2022-12-13T16:25:05.735Z,24.33
2022-12-13T16:27:33.684Z,24.10
2022-12-13T16:30:01.246Z,22.63
2022-12-13T16:32:29.773Z,22.65
2022-12-13T16:34:57.395Z,22.48
2022-12-13T16:37:28.236Z,23.85
2022-12-13T16:39:57.475Z,26.60
2022-12-13T16:42:26.950Z,27.00
2022-12-13T16:47:49.526Z,27.55
2022-12-13T16:50:20.808Z,28.55
2022-12-13T16:52:49.508Z,29.23
2022-12-13T16:55:17.518Z,31.08
2022-12-13T16:58:00.189Z,32.90
2022-12-13T17:00:29.724Z,31.33
2022-12-13T17:03:00.027Z,30.85
2022-12-13T17:05:29.599Z,30.13
2022-12-13T17:07:57.651Z,31.02
2022-12-13T17:10:26.205Z,29.33
2022-12-13T17:12:54.996Z,28.23
2022-12-13T17:15:22.609Z,25.67
2022-12-13T17:17:50.647Z,26.95
2022-12-13T17:20:18.944Z,25.77
2022-12-13T17:22:46.988Z,27.10
2022-12-13T17:25:14.797Z,29.50
2022-12-13T17:27:43.936Z,27.95
2022-12-13T17:30:20.589Z,30.33
2022-12-13T17:32:48.575Z,29.30
2022-12-13T17:35:18.551Z,31.25
2022-12-13T17:37:46.824Z,29.50
2022-12-13T17:40:14.336Z,28.65
2022-12-13T17:42:42.263Z,28.83
2022-12-13T17:45:10.357Z,27.52
2022-12-13T17:47:39.801Z,26.95
2022-12-13T17:50:09.290Z,27.45
2022-12-13T17:52:39.347Z,29.88
2022-12-13T17:55:11.216Z,28.77
2022-12-13T17:57:42.804Z,28.52
2022-12-13T18:00:11.711Z,27.75
2022-12-13T18:02:42.646Z,27.45
2022-12-13T18:05:26.263Z,25.50
2022-12-13T18:07:54.306Z,25.52
2022-12-13T18:10:26.354Z,23.17
2022-12-13T18:12:58.520Z,23.35
2022-12-13T18:15:26.473Z,21.58
2022-12-13T18:18:13.693Z,22.13
2022-12-13T18:20:42.499Z,20.70
2022-12-13T18:23:10.642Z,22.48
2022-12-13T18:25:38.853Z,23.95
2022-12-13T18:28:12.005Z,23.52
2022-12-13T18:30:39.603Z,20.48
2022-12-13T18:33:07.610Z,21.45
2022-12-13T18:35:35.209Z,21.90
2022-12-13T18:38:03.110Z,20.55
2022-12-13T18:40:31.752Z,23.58
2022-12-13T18:42:59.602Z,21.20
2022-12-13T18:45:27.689Z,22.33
2022-12-13T18:47:55.526Z,22.73
2022-12-13T18:50:23.346Z,24.67
2022-12-13T18:52:51.345Z,25.63
2022-12-13T18:55:19.048Z,24.85
2022-12-13T18:57:50.379Z,23.42
2022-12-13T19:00:20.867Z,22.35
2022-12-13T19:02:49.335Z,21.90
2022-12-13T19:05:17.172Z,20.83
2022-12-13T19:07:45.302Z,21.00
2022-12-13T19:10:13.056Z,16.92
2022-12-13T19:12:40.928Z,18.85
2022-12-13T19:15:08.949Z,20.20
2022-12-13T19:17:37.033Z,20.30
2022-12-13T19:20:05.585Z,18.63
2022-12-13T19:22:34.203Z,18.65
2022-12-13T19:25:01.854Z,17.13
2022-12-13T19:27:30.167Z,16.55
2022-12-13T19:29:57.712Z,15.50
2022-12-13T19:32:25.932Z,15.85
2022-12-13T19:34:54.154Z,15.65
2022-12-13T19:37:22.223Z,15.73
2022-12-13T19:39:49.808Z,16.33
2022-12-13T19:42:17.778Z,16.58
2022-12-13T19:44:45.316Z,18.88
2022-12-13T19:47:31.651Z,18.05
2022-12-13T19:49:59.270Z,19.38
2022-12-13T19:52:27.809Z,19.88
2022-12-13T19:54:55.988Z,19.17
2022-12-13T19:57:24.094Z,20.58
2022-12-13T19:59:51.778Z,19.55
2022-12-13T20:02:20.056Z,20.02
2022-12-13T20:04:49.466Z,17.97
2022-12-13T20:07:17.458Z,19.08
2022-12-13T20:09:45.126Z,17.23
2022-12-13T20:12:13.009Z,18.80
2022-12-13T20:14:40.557Z,17.42
2022-12-13T20:17:08.371Z,17.20
2022-12-13T20:19:36.115Z,15.88
2022-12-13T20:22:04.006Z,15.77
2022-12-13T20:24:31.774Z,16.52
2022-12-13T20:27:00.082Z,18.13
2022-12-13T20:29:27.924Z,19.25
2022-12-13T20:31:57.134Z,16.33
2022-12-13T20:34:25.104Z,16.35
2022-12-13T20:36:53.337Z,15.98
2022-12-13T20:39:21.889Z,16.50
2022-12-13T20:41:50.017Z,15.27
2022-12-13T20:44:17.698Z,16.33
2022-12-13T20:46:45.674Z,15.93
2022-12-13T20:49:13.462Z,16.30
2022-12-13T20:51:41.805Z,18.30
2022-12-13T20:54:09.771Z,17.58
2022-12-13T20:56:39.129Z,16.25
2022-12-13T20:59:11.286Z,17.02
2022-12-13T21:01:41.635Z,15.20
2022-12-13T21:04:10.943Z,15.50
2022-12-13T21:06:41.663Z,15.32
2022-12-13T21:09:11.535Z,14.95
2022-12-13T21:11:43.549Z,15.90
2022-12-13T21:14:22.399Z,18.80
2022-12-13T21:16:57.010Z,17.77
2022-12-13T21:19:38.948Z,18.35
2022-12-13T21:22:08.241Z,17.88
2022-12-13T21:24:35.833Z,18.88
2022-12-13T21:27:04.634Z,17.90
2022-12-13T21:29:32.400Z,14.80
2022-12-13T21:32:00.387Z,20.20
2022-12-13T21:34:28.103Z,18.08
2022-12-13T21:36:56.007Z,17.42
2022-12-13T21:39:31.070Z,17.27
2022-12-13T21:41:59.310Z,16.05
2022-12-13T21:44:27.272Z,17.05
2022-12-13T21:47:12.022Z,15.52
2022-12-13T21:49:41.064Z,15.60
2022-12-13T21:52:09.069Z,17.60
2022-12-13T21:54:36.713Z,14.38
2022-12-13T21:57:32.579Z,14.13
2022-12-13T22:00:12.586Z,14.35
2022-12-13T22:02:47.875Z,15.27
2022-12-13T22:05:19.840Z,13.95
2022-12-13T22:07:49.825Z,14.88
2022-12-13T22:10:17.610Z,12.57
2022-12-13T22:12:45.562Z,14.05
2022-12-13T22:15:27.812Z,13.15
2022-12-13T22:18:04.083Z,14.57
2022-12-13T22:20:39.787Z,16.33
2022-12-13T22:23:11.859Z,13.77
2022-12-13T22:26:05.644Z,14.75
2022-12-13T22:28:57.668Z,15.35
2022-12-13T22:31:33.085Z,14.60
2022-12-13T22:34:07.819Z,13.52
2022-12-13T22:36:41.435Z,14.75
2022-12-13T22:39:22.814Z,14.45
2022-12-13T22:44:29.427Z,14.27
2022-12-13T22:46:59.573Z,16.13
2022-12-13T22:49:36.742Z,17.60
2022-12-13T22:52:10.800Z,16.42
2022-12-13T22:54:45.364Z,16.40
2022-12-13T22:57:17.757Z,16.88
2022-12-13T22:59:52.126Z,17.55
2022-12-13T23:02:25.542Z,20.92
2022-12-13T23:05:02.253Z,19.98
2022-12-13T23:07:39.687Z,22.00
2022-12-13T23:10:32.022Z,18.77
2022-12-13T23:13:04.067Z,18.73
2022-12-13T23:15:36.501Z,18.73
2022-12-13T23:18:04.268Z,17.40
2022-12-13T23:20:34.546Z,18.42
2022-12-13T23:23:02.195Z,19.08
2022-12-13T23:25:30.174Z,18.75
2022-12-13T23:27:57.725Z,18.30
2022-12-13T23:30:26.014Z,18.80
2022-12-13T23:32:55.343Z,18.17
2022-12-13T23:35:23.262Z,18.73
2022-12-13T23:37:50.989Z,21.23
2022-12-13T23:40:19.111Z,18.52
2022-12-13T23:42:46.715Z,19.63
2022-12-13T23:45:21.282Z,19.55
2022-12-13T23:47:50.656Z,21.77
2022-12-13T23:50:26.260Z,21.58
2022-12-13T23:52:56.833Z,20.13
2022-12-13T23:55:30.646Z,21.20
2022-12-13T23:58:01.986Z,19.67
